Time;durP1;ratioP1;P1;durP2;ratioP2;P2;SDS_P1;SDS_P2;PMS_P1;PMS_P2;Temp;Humidity;BMP_temperature;BMP_pressure;BME280_temperature;BME280_humidity;BME280_pressure;Samples;Min_cycle;Max_cycle;Signal;HPM_P1;HPM_P2
2023/06/13 00:00:38;;;;;;;2.77;1.80;;;13.40;99.90;;;;;;4130404;28;20073;-62
2023/06/13 00:02:39;;;;;;;2.70;1.87;;;13.40;99.90;;;;;;4129954;28;20089;-62
2023/06/13 00:04:43;;;;;;;11.03;2.40;;;13.40;99.90;;;;;;4129157;28;20084;-61
2023/06/13 00:06:45;;;;;;;2.45;1.77;;;13.40;99.90;;;;;;4130125;28;20030;-61
2023/06/13 00:08:47;;;;;;;2.73;2.00;;;13.40;99.90;;;;;;4129189;28;20054;-62
2023/06/13 00:10:48;;;;;;;4.03;2.00;;;13.40;99.90;;;;;;4130412;28;20383;-62
2023/06/13 00:12:51;;;;;;;2.40;1.90;;;13.40;99.90;;;;;;4128534;28;20105;-61
2023/06/13 00:14:52;;;;;;;5.23;1.93;;;13.30;99.90;;;;;;4130577;28;20069;-61
2023/06/13 00:16:54;;;;;;;5.00;2.07;;;13.40;99.90;;;;;;4128710;28;20042;-61
2023/06/13 00:18:56;;;;;;;2.00;1.80;;;13.30;99.90;;;;;;4129957;28;20101;-61
2023/06/13 00:20:58;;;;;;;3.40;1.60;;;13.30;99.90;;;;;;4129180;28;20478;-60
2023/06/13 00:22:59;;;;;;;3.20;2.03;;;13.30;99.90;;;;;;4129792;28;20046;-62
2023/06/13 00:25:01;;;;;;;2.27;1.80;;;13.30;99.90;;;;;;4128405;28;20038;-61
2023/06/13 00:27:02;;;;;;;2.23;2.03;;;13.30;99.90;;;;;;4130258;28;20467;-61
2023/06/13 00:29:04;;;;;;;1.73;1.50;;;13.20;99.90;;;;;;4128775;28;20042;-61
2023/06/13 00:31:05;;;;;;;2.57;1.97;;;13.20;99.90;;;;;;4129802;28;20369;-61
2023/06/13 00:33:07;;;;;;;3.63;1.90;;;13.20;99.90;;;;;;4128890;28;20088;-61
2023/06/13 00:35:08;;;;;;;2.30;2.03;;;13.20;99.90;;;;;;4127546;28;20097;-62
2023/06/13 00:37:10;;;;;;;2.47;1.70;;;13.20;99.90;;;;;;4129543;28;20532;-62
2023/06/13 00:39:11;;;;;;;3.00;2.20;;;13.10;99.90;;;;;;4128923;28;20102;-62
2023/06/13 00:41:12;;;;;;;3.43;2.13;;;13.10;99.90;;;;;;4129831;28;20030;-61
2023/06/13 00:43:13;;;;;;;4.53;2.50;;;13.20;99.90;;;;;;4128894;28;20483;-61
2023/06/13 00:45:21;;;;;;;3.37;2.50;;;13.20;99.90;;;;;;4129823;28;20038;-63
2023/06/13 00:47:26;;;;;;;4.03;2.10;;;13.10;99.90;;;;;;4128180;28;20097;-66
2023/06/13 00:49:28;;;;;;;3.73;2.50;;;13.10;99.90;;;;;;4129904;28;20038;-64
2023/06/13 00:51:35;;;;;;;2.70;2.23;;;13.20;99.90;;;;;;4128623;28;20101;-61
2023/06/13 00:53:36;;;;;;;3.43;2.20;;;13.20;99.90;;;;;;4129826;28;20092;-64
2023/06/13 00:55:38;;;;;;;4.13;2.57;;;13.10;99.90;;;;;;4128037;28;20085;-63
2023/06/13 00:57:39;;;;;;;3.60;2.43;;;13.10;99.90;;;;;;4129363;28;20042;-62
2023/06/13 00:59:41;;;;;;;2.37;1.80;;;13.10;99.90;;;;;;4128802;28;20085;-62
2023/06/13 01:01:43;;;;;;;3.20;2.47;;;13.00;99.90;;;;;;4129535;28;20038;-63
2023/06/13 01:03:45;;;;;;;3.60;2.40;;;13.00;99.90;;;;;;4128231;28;20500;-62
2023/06/13 01:05:47;;;;;;;5.30;2.67;;;13.00;99.90;;;;;;4129174;28;20031;-62
2023/06/13 01:07:48;;;;;;;3.43;2.40;;;13.00;99.90;;;;;;4128657;28;20465;-62
2023/06/13 01:09:50;;;;;;;4.47;2.60;;;12.90;99.90;;;;;;4128917;28;20561;-62
2023/06/13 01:12:32;;;;;;;3.27;2.37;;;12.90;99.90;;;;;;4127326;28;20038;-62
2023/06/13 01:14:55;;;;;;;4.17;2.57;;;12.90;99.90;;;;;;4091550;28;20054;-61
2023/06/13 01:17:20;;;;;;;3.23;2.73;;;12.90;99.90;;;;;;4127754;28;20034;-62
2023/06/13 01:19:41;;;;;;;5.20;2.90;;;12.90;99.90;;;;;;4129263;28;20067;-61
2023/06/13 01:21:44;;;;;;;3.73;2.70;;;12.90;99.90;;;;;;4128304;28;20065;-62
2023/06/13 01:24:02;;;;;;;6.13;3.23;;;12.90;99.90;;;;;;4129365;28;20022;-61
2023/06/13 01:26:15;;;;;;;4.70;3.00;;;12.90;99.90;;;;;;4127853;28;20034;-61
2023/06/13 01:28:16;;;;;;;4.87;3.13;;;12.90;99.90;;;;;;4128797;28;20054;-61
2023/06/13 01:30:20;;;;;;;3.70;3.10;;;13.00;99.90;;;;;;4128608;28;20521;-61
2023/06/13 01:32:22;;;;;;;5.63;3.03;;;13.00;99.90;;;;;;4128398;28;20093;-62
2023/06/13 01:34:24;;;;;;;6.10;3.40;;;13.00;99.90;;;;;;4127821;28;20557;-62
2023/06/13 01:36:26;;;;;;;3.20;2.63;;;13.00;99.90;;;;;;4129294;28;20030;-61
2023/06/13 01:38:27;;;;;;;4.77;2.70;;;13.00;99.90;;;;;;4128075;28;20034;-62
2023/06/13 01:40:28;;;;;;;6.03;3.77;;;13.00;99.90;;;;;;4129160;28;20081;-62
2023/06/13 01:42:30;;;;;;;3.73;3.00;;;13.00;99.90;;;;;;4128344;28;20022;-62
2023/06/13 01:44:31;;;;;;;6.20;3.00;;;13.00;99.90;;;;;;4129033;28;20084;-62
2023/06/13 01:46:54;;;;;;;5.07;3.20;;;13.00;99.90;;;;;;4128603;28;20077;-62
2023/06/13 01:49:39;;;;;;;3.53;2.80;;;13.00;99.90;;;;;;4128356;28;20042;-62
2023/06/13 01:51:52;;;;;;;4.83;2.70;;;13.00;99.90;;;;;;4109911;28;20054;-62
2023/06/13 01:54:03;;;;;;;5.90;3.10;;;12.90;99.90;;;;;;4122785;28;20034;-62
2023/06/13 01:56:09;;;;;;;5.03;2.80;;;12.90;99.90;;;;;;4127892;28;20089;-63
2023/06/13 01:58:21;;;;;;;2.87;2.33;;;12.90;99.90;;;;;;4128795;28;20038;-62
2023/06/13 02:00:22;;;;;;;3.17;2.40;;;12.90;99.90;;;;;;4128313;28;20030;-61
2023/06/13 02:02:24;;;;;;;2.97;2.63;;;12.90;99.90;;;;;;4129250;28;20085;-62
2023/06/13 02:04:26;;;;;;;4.17;2.57;;;12.90;99.90;;;;;;4127618;28;20034;-62
2023/06/13 02:06:28;;;;;;;4.33;2.70;;;12.90;99.90;;;;;;4129178;28;20046;-62
2023/06/13 02:08:31;;;;;;;6.20;3.13;;;12.80;99.90;;;;;;4130647;28;20038;-62
2023/06/13 02:10:32;;;;;;;4.97;2.73;;;12.80;99.90;;;;;;4131895;28;20022;-62
2023/06/13 02:12:33;;;;;;;3.77;2.70;;;12.90;99.90;;;;;;4131365;28;20073;-62
2023/06/13 02:14:36;;;;;;;4.00;2.20;;;12.90;99.90;;;;;;4131493;28;20031;-61
2023/06/13 02:16:39;;;;;;;6.87;3.23;;;12.90;99.90;;;;;;4131770;28;20089;-61
2023/06/13 02:18:40;;;;;;;3.10;2.40;;;12.80;99.90;;;;;;4131176;28;20483;-62
2023/06/13 02:20:41;;;;;;;4.63;2.60;;;12.80;99.90;;;;;;4131864;28;20034;-61
2023/06/13 02:22:42;;;;;;;6.20;2.90;;;12.80;99.90;;;;;;4130895;28;20545;-62
2023/06/13 02:24:44;;;;;;;4.47;2.70;;;12.80;99.90;;;;;;4130355;28;20042;-62
2023/06/13 02:26:45;;;;;;;4.20;2.73;;;12.80;99.90;;;;;;4130914;28;20450;-62
2023/06/13 02:28:47;;;;;;;6.23;3.00;;;12.80;99.90;;;;;;4131898;28;20085;-62
2023/06/13 02:30:49;;;;;;;6.03;2.90;;;12.80;99.90;;;;;;4131219;28;20046;-61
2023/06/13 02:32:50;;;;;;;4.90;3.33;;;12.80;99.90;;;;;;4131875;28;20038;-61
2023/06/13 02:34:51;;;;;;;5.07;3.17;;;12.80;99.90;;;;;;4130230;28;20617;-62
2023/06/13 02:36:52;;;;;;;4.43;2.80;;;12.80;99.90;;;;;;4131678;28;20087;-62
2023/06/13 02:38:53;;;;;;;5.03;2.83;;;12.80;99.90;;;;;;4130680;28;20030;-61
2023/06/13 02:40:55;;;;;;;4.67;2.60;;;12.80;99.90;;;;;;4131435;28;20475;-62
2023/06/13 02:42:56;;;;;;;4.57;3.07;;;12.80;99.90;;;;;;4130868;28;20032;-62
2023/06/13 02:44:57;;;;;;;4.07;3.13;;;12.80;99.90;;;;;;4130967;28;20487;-62
2023/06/13 02:46:58;;;;;;;4.63;3.00;;;12.80;99.90;;;;;;4131191;28;20573;-62
2023/06/13 02:48:59;;;;;;;4.37;2.77;;;12.80;99.90;;;;;;4130650;28;20061;-62
2023/06/13 02:51:00;;;;;;;5.97;2.80;;;12.80;99.90;;;;;;4131386;28;20069;-62
2023/06/13 02:53:01;;;;;;;3.80;2.53;;;12.80;99.90;;;;;;4130223;28;20030;-63
2023/06/13 02:55:03;;;;;;;10.10;2.97;;;12.90;99.90;;;;;;4131482;28;20030;-62
2023/06/13 02:57:06;;;;;;;4.50;3.00;;;12.90;99.90;;;;;;4130321;28;20034;-61
2023/06/13 02:59:07;;;;;;;4.80;2.97;;;12.90;99.90;;;;;;4130861;28;20446;-62
2023/06/13 03:01:08;;;;;;;5.30;3.10;;;12.80;99.90;;;;;;4130783;28;20446;-61
2023/06/13 03:03:10;;;;;;;3.77;2.73;;;12.90;99.90;;;;;;4130873;28;20026;-62
2023/06/13 03:05:16;;;;;;;5.90;3.53;;;12.90;99.90;;;;;;4130392;28;20026;-61
2023/06/13 03:07:18;;;;;;;4.17;2.83;;;13.00;99.90;;;;;;4130895;28;20441;-62
2023/06/13 03:09:19;;;;;;;7.10;3.13;;;12.90;99.90;;;;;;4128606;28;20081;-62
2023/06/13 03:11:20;;;;;;;3.70;2.60;;;12.90;99.90;;;;;;4131158;28;20034;-62
2023/06/13 03:13:22;;;;;;;4.47;3.10;;;13.00;99.90;;;;;;4144807;28;20042;-62
2023/06/13 03:15:23;;;;;;;6.23;2.73;;;13.00;99.90;;;;;;4130758;28;20030;-60
2023/06/13 03:17:25;;;;;;;3.70;2.67;;;13.00;99.90;;;;;;4130532;28;20019;-61
2023/06/13 03:19:26;;;;;;;5.30;3.00;;;13.00;99.90;;;;;;4127809;28;20477;-61
2023/06/13 03:21:28;;;;;;;3.70;2.67;;;13.00;99.90;;;;;;4130793;28;20026;-60
2023/06/13 03:23:29;;;;;;;3.90;2.67;;;13.00;99.90;;;;;;4129569;28;20116;-61
2023/06/13 03:25:31;;;;;;;3.27;2.83;;;13.00;99.90;;;;;;4130708;28;20109;-61
2023/06/13 03:27:32;;;;;;;4.43;2.80;;;13.10;99.90;;;;;;4129694;28;20908;-61
2023/06/13 03:29:33;;;;;;;3.93;2.80;;;13.10;99.90;;;;;;4131134;28;20035;-62
2023/06/13 03:31:34;;;;;;;3.43;3.07;;;13.10;99.90;;;;;;4130041;28;20042;-61
2023/06/13 03:33:35;;;;;;;3.77;3.00;;;13.00;99.90;;;;;;4131133;28;20042;-61
2023/06/13 03:35:36;;;;;;;5.37;2.87;;;13.10;99.90;;;;;;4129603;28;20034;-61
2023/06/13 03:37:38;;;;;;;3.53;2.90;;;13.10;99.90;;;;;;4130083;28;20045;-65
2023/06/13 03:39:39;;;;;;;7.60;2.40;;;13.10;99.90;;;;;;4129688;28;20034;-63
2023/06/13 03:41:40;;;;;;;5.73;2.80;;;13.10;99.90;;;;;;4130813;28;20030;-71
2023/06/13 03:43:41;;;;;;;4.93;2.87;;;13.10;99.90;;;;;;4129687;28;20891;-61
2023/06/13 03:45:42;;;;;;;7.93;2.93;;;13.10;99.90;;;;;;4129632;28;20038;-63
2023/06/13 03:47:44;;;;;;;3.50;2.80;;;13.10;99.90;;;;;;4129916;28;20038;-65
2023/06/13 03:49:45;;;;;;;3.93;2.70;;;13.10;99.90;;;;;;4129951;28;20089;-62
2023/06/13 03:51:46;;;;;;;5.63;2.80;;;13.10;99.90;;;;;;4144960;28;20030;-62
2023/06/13 03:53:47;;;;;;;5.27;2.77;;;13.10;99.90;;;;;;4129389;28;20027;-62
2023/06/13 03:55:49;;;;;;;7.90;3.50;;;13.10;99.90;;;;;;4130199;28;20438;-62
2023/06/13 03:57:51;;;;;;;8.07;3.20;;;13.10;99.90;;;;;;4129244;28;20034;-62
2023/06/13 03:59:52;;;;;;;3.63;2.60;;;13.10;99.90;;;;;;4130489;28;20030;-61
2023/06/13 04:01:53;;;;;;;5.47;3.07;;;13.20;99.90;;;;;;4129620;28;20081;-61
2023/06/13 04:03:55;;;;;;;3.77;2.80;;;13.20;99.90;;;;;;4130216;28;20089;-63
2023/06/13 04:05:56;;;;;;;7.03;2.50;;;13.20;99.90;;;;;;4128947;28;20073;-62
2023/06/13 04:07:58;;;;;;;3.03;2.73;;;13.20;99.90;;;;;;4130231;28;20034;-61
2023/06/13 04:10:01;;;;;;;3.43;2.40;;;13.10;99.90;;;;;;4128693;28;20049;-62
2023/06/13 04:12:02;;;;;;;4.03;3.00;;;13.10;99.90;;;;;;4129519;28;20046;-60
2023/06/13 04:14:03;;;;;;;4.17;2.57;;;13.10;99.90;;;;;;4128917;28;20077;-61
2023/06/13 04:16:05;;;;;;;4.27;2.80;;;13.10;99.90;;;;;;4129377;28;20084;-62
2023/06/13 04:18:09;;;;;;;4.20;3.07;;;13.10;99.90;;;;;;4129165;28;20088;-62
2023/06/13 04:20:10;;;;;;;4.10;2.47;;;13.20;99.90;;;;;;4128789;28;20084;-63
2023/06/13 04:22:11;;;;;;;3.37;2.40;;;13.20;99.90;;;;;;4129051;28;20019;-62
2023/06/13 04:24:14;;;;;;;3.60;2.73;;;13.20;99.90;;;;;;4129145;28;20034;-62
2023/06/13 04:26:17;;;;;;;4.63;2.40;;;13.20;99.90;;;;;;4129716;28;20541;-62
2023/06/13 04:28:18;;;;;;;2.87;2.30;;;13.20;99.90;;;;;;4128527;28;20581;-63
2023/06/13 04:30:19;;;;;;;3.37;2.63;;;13.20;99.90;;;;;;4129019;28;20065;-63
2023/06/13 04:32:23;;;;;;;4.40;2.40;;;13.20;99.90;;;;;;4128769;28;20491;-61
2023/06/13 04:34:24;;;;;;;4.67;2.57;;;13.20;99.90;;;;;;4127984;28;20122;-61
2023/06/13 04:36:28;;;;;;;6.07;2.33;;;13.20;99.90;;;;;;4128106;28;20046;-64
2023/06/13 04:38:31;;;;;;;4.50;2.67;;;13.20;99.90;;;;;;4129484;28;20030;-62
2023/06/13 04:40:33;;;;;;;2.90;2.50;;;13.20;99.90;;;;;;4128602;28;20034;-61
2023/06/13 04:42:34;;;;;;;3.43;2.97;;;13.20;99.90;;;;;;4129606;28;20549;-61
2023/06/13 04:44:35;;;;;;;3.07;2.63;;;13.20;99.90;;;;;;4128468;28;20079;-62
2023/06/13 04:46:41;;;;;;;6.47;2.90;;;13.30;99.90;;;;;;4144413;28;20084;-63
2023/06/13 04:48:43;;;;;;;6.23;3.57;;;13.30;99.90;;;;;;4127847;28;20081;-61
2023/06/13 04:50:44;;;;;;;5.07;3.20;;;13.30;99.90;;;;;;4129241;28;20108;-61
2023/06/13 04:52:52;;;;;;;9.37;4.97;;;13.40;99.90;;;;;;4128918;28;20030;-61
2023/06/13 04:54:55;;;;;;;3.43;3.10;;;13.40;99.90;;;;;;4143263;28;20037;-61
2023/06/13 04:56:56;;;;;;;3.90;3.17;;;13.50;99.90;;;;;;4142866;28;20046;-62
2023/06/13 04:58:58;;;;;;;6.63;2.90;;;13.50;99.90;;;;;;4128712;28;20034;-61
2023/06/13 05:00:59;;;;;;;5.93;3.50;;;13.50;99.90;;;;;;4129611;28;20077;-61
2023/06/13 05:03:01;;;;;;;4.30;2.67;;;13.50;99.90;;;;;;4128208;28;20030;-62
2023/06/13 05:05:04;;;;;;;4.60;3.73;;;13.60;99.90;;;;;;4129128;28;20466;-61
2023/06/13 05:07:06;;;;;;;7.37;4.43;;;13.60;99.90;;;;;;4127767;28;20096;-63
2023/06/13 05:09:07;;;;;;;10.53;3.90;;;13.60;99.90;;;;;;4128424;28;20054;-62
2023/06/13 05:11:09;;;;;;;7.00;2.90;;;13.60;99.90;;;;;;4127969;28;20120;-62
2023/06/13 05:13:11;;;;;;;5.03;2.80;;;13.60;99.90;;;;;;4128432;28;20034;-62
2023/06/13 05:15:12;;;;;;;7.35;3.63;;;13.60;99.90;;;;;;4127902;28;20090;-65
2023/06/13 05:17:14;;;;;;;5.60;3.30;;;13.60;99.90;;;;;;4128435;28;20042;-62
2023/06/13 05:19:17;;;;;;;3.77;2.50;;;13.60;99.90;;;;;;4128006;28;20463;-65
2023/06/13 05:21:18;;;;;;;4.70;2.97;;;13.60;99.90;;;;;;4129250;28;20084;-62
2023/06/13 05:23:21;;;;;;;5.77;3.00;;;13.70;99.90;;;;;;4127633;28;20042;-66
2023/06/13 05:25:23;;;;;;;5.63;3.30;;;13.70;99.90;;;;;;4128381;28;20046;-68
2023/06/13 05:27:24;;;;;;;5.22;2.78;;;13.70;99.90;;;;;;4128353;28;20030;-64
2023/06/13 05:29:26;;;;;;;4.17;3.17;;;13.70;99.90;;;;;;4128314;28;20034;-61
2023/06/13 05:31:27;;;;;;;5.27;3.20;;;13.70;99.90;;;;;;4128901;28;20096;-61
2023/06/13 05:33:29;;;;;;;4.43;3.27;;;13.70;99.90;;;;;;4127295;28;20054;-62
2023/06/13 05:35:30;;;;;;;4.10;2.80;;;13.70;99.90;;;;;;4128642;28;20463;-65
2023/06/13 05:37:31;;;;;;;3.53;2.90;;;13.70;99.90;;;;;;4127209;28;20156;-67
2023/06/13 05:39:32;;;;;;;3.70;2.73;;;13.70;99.90;;;;;;4142944;28;20104;-66
2023/06/13 05:41:33;;;;;;;5.10;3.17;;;13.70;99.90;;;;;;4129152;28;20035;-65
2023/06/13 05:43:35;;;;;;;3.20;2.90;;;13.70;99.90;;;;;;4134243;28;20022;-63
2023/06/13 05:45:36;;;;;;;5.00;3.13;;;13.80;99.90;;;;;;4133110;28;20566;-60
2023/06/13 05:47:37;;;;;;;6.00;3.53;;;13.80;99.90;;;;;;4134248;28;20027;-61
2023/06/13 05:49:38;;;;;;;7.63;3.83;;;13.80;99.90;;;;;;4132702;28;20023;-65
2023/06/13 05:51:39;;;;;;;3.40;3.10;;;13.80;99.90;;;;;;4133880;28;20034;-62
2023/06/13 05:53:40;;;;;;;4.37;2.67;;;13.80;99.90;;;;;;4132806;28;20364;-61
2023/06/13 05:55:42;;;;;;;4.20;2.53;;;13.90;99.90;;;;;;4133779;28;20089;-70
2023/06/13 05:57:44;;;;;;;2.60;2.10;;;13.90;99.90;;;;;;4133226;28;20034;-63
2023/06/13 05:59:45;;;;;;;4.40;2.57;;;13.90;99.90;;;;;;4133690;28;20034;-61
2023/06/13 06:01:47;;;;;;;2.67;2.30;;;13.90;99.90;;;;;;4133582;28;20096;-62
2023/06/13 06:03:48;;;;;;;5.27;2.30;;;13.90;99.90;;;;;;4133384;28;20034;-60
2023/06/13 06:05:49;;;;;;;3.22;2.22;;;13.90;99.90;;;;;;4133748;28;20081;-61
2023/06/13 06:07:50;;;;;;;3.77;2.47;;;13.90;99.90;;;;;;4132688;28;20018;-62
2023/06/13 06:09:51;;;;;;;2.60;2.40;;;13.90;99.90;;;;;;4133834;28;20466;-60
2023/06/13 06:11:53;;;;;;;2.47;2.17;;;13.90;99.90;;;;;;4133164;28;20034;-62
2023/06/13 06:13:54;;;;;;;2.53;2.28;;;13.90;99.90;;;;;;4133997;28;20057;-62
2023/06/13 06:15:55;;;;;;;2.42;2.13;;;14.00;99.90;;;;;;4132990;28;20026;-64
2023/06/13 06:17:56;;;;;;;2.60;1.80;;;14.00;99.90;;;;;;4134186;28;20548;-64
2023/06/13 06:19:58;;;;;;;2.50;2.30;;;14.00;99.90;;;;;;4132972;28;20034;-68
2023/06/13 06:21:59;;;;;;;2.40;2.03;;;14.10;99.90;;;;;;4133869;28;20073;-67
2023/06/13 06:24:01;;;;;;;3.83;2.20;;;14.10;99.90;;;;;;4132802;28;20092;-63
2023/06/13 06:26:02;;;;;;;4.00;1.67;;;14.10;99.90;;;;;;4133915;28;20530;-65
2023/06/13 06:28:03;;;;;;;2.20;1.60;;;14.10;99.90;;;;;;4147328;28;20053;-65
2023/06/13 06:30:05;;;;;;;2.03;1.80;;;14.10;99.90;;;;;;4133491;28;20081;-65
2023/06/13 06:32:07;;;;;;;2.23;1.80;;;14.10;99.90;;;;;;4133648;28;20038;-68
2023/06/13 06:34:08;;;;;;;1.70;1.60;;;14.20;99.90;;;;;;4133243;28;20097;-63
2023/06/13 06:36:09;;;;;;;2.47;1.95;;;14.20;99.90;;;;;;4133479;28;20132;-64
2023/06/13 06:38:10;;;;;;;1.98;1.75;;;14.20;99.90;;;;;;4132611;28;20104;-63
2023/06/13 06:40:12;;;;;;;2.22;2.03;;;14.20;99.90;;;;;;4133768;28;20592;-62
2023/06/13 06:42:13;;;;;;;2.17;2.08;;;14.30;99.90;;;;;;4132857;28;20022;-66
2023/06/13 06:44:14;;;;;;;2.15;1.95;;;14.30;99.90;;;;;;4148826;28;20498;-63
2023/06/13 06:46:16;;;;;;;1.60;1.50;;;14.30;99.90;;;;;;4132841;28;20061;-62
2023/06/13 06:48:17;;;;;;;1.75;1.65;;;14.40;99.90;;;;;;4133811;28;20084;-64
2023/06/13 06:50:18;;;;;;;1.50;1.40;;;14.30;99.90;;;;;;4132632;28;20077;-63
2023/06/13 06:52:20;;;;;;;2.20;1.70;;;14.30;99.90;;;;;;4133586;28;20042;-66
2023/06/13 06:54:21;;;;;;;2.15;1.60;;;14.30;99.90;;;;;;4128700;28;20050;-68
2023/06/13 06:56:22;;;;;;;2.00;1.60;;;14.30;99.90;;;;;;4131075;28;20085;-63
2023/06/13 06:58:24;;;;;;;1.75;1.65;;;14.30;99.90;;;;;;4129804;28;20030;-63
2023/06/13 07:00:25;;;;;;;1.67;1.52;;;14.30;99.90;;;;;;4131154;28;20019;-61
2023/06/13 07:02:26;;;;;;;1.77;1.50;;;14.30;99.90;;;;;;4130788;28;20463;-61
2023/06/13 07:04:27;;;;;;;1.73;1.63;;;14.40;99.90;;;;;;4145050;28;20041;-61
2023/06/13 07:06:30;;;;;;;2.90;2.65;;;14.40;99.90;;;;;;4130820;28;20429;-64
2023/06/13 07:08:32;;;;;;;2.83;2.53;;;14.40;99.90;;;;;;4129996;28;20101;-62
2023/06/13 07:10:33;;;;;;;2.13;2.03;;;14.40;99.90;;;;;;4145048;28;20584;-61
2023/06/13 07:12:34;;;;;;;1.73;1.63;;;14.40;99.90;;;;;;4127821;28;20559;-61
2023/06/13 07:14:35;;;;;;;2.80;1.90;;;14.50;99.90;;;;;;4130943;28;20034;-62
2023/06/13 07:16:36;;;;;;;2.13;2.00;;;14.50;99.90;;;;;;4128195;28;20042;-61
2023/06/13 07:18:37;;;;;;;2.03;1.83;;;14.50;99.90;;;;;;4130879;28;20134;-64
2023/06/13 07:20:39;;;;;;;2.38;2.17;;;14.60;99.90;;;;;;4144123;28;20084;-63
2023/06/13 07:22:41;;;;;;;1.83;1.73;;;14.60;99.90;;;;;;4130813;28;21037;-62
2023/06/13 07:24:42;;;;;;;2.28;1.65;;;14.70;99.90;;;;;;4129317;28;20046;-62
2023/06/13 07:26:43;;;;;;;2.88;1.80;;;14.70;99.90;;;;;;4130803;28;20085;-62
2023/06/13 07:28:44;;;;;;;1.75;1.65;;;14.70;99.90;;;;;;4127798;28;20163;-61
2023/06/13 07:30:45;;;;;;;3.65;1.85;;;14.70;99.90;;;;;;4129017;28;20121;-65
2023/06/13 07:32:46;;;;;;;2.63;2.15;;;14.70;99.90;;;;;;4130066;28;20045;-67
2023/06/13 07:34:49;;;;;;;2.75;1.55;;;14.70;99.90;;;;;;4130141;28;20042;-61
2023/06/13 07:36:50;;;;;;;1.38;1.25;;;14.70;99.90;;;;;;4130123;28;20470;-64
2023/06/13 07:38:52;;;;;;;2.85;1.67;;;14.70;99.90;;;;;;4129567;28;20137;-66
2023/06/13 07:40:53;;;;;;;1.75;1.65;;;14.70;99.90;;;;;;4130469;28;20442;-62
2023/06/13 07:42:54;;;;;;;2.20;2.00;;;14.70;99.90;;;;;;4129154;28;20471;-64
2023/06/13 07:44:55;;;;;;;2.58;2.25;;;14.70;99.90;;;;;;4130499;28;20077;-66
2023/06/13 07:46:56;;;;;;;2.50;2.30;;;14.60;99.90;;;;;;4128933;28;20490;-65
2023/06/13 07:48:58;;;;;;;3.67;2.53;;;14.60;99.90;;;;;;4130583;28;20026;-69
2023/06/13 07:50:59;;;;;;;3.45;2.47;;;14.60;99.90;;;;;;4129054;28;20046;-62
2023/06/13 07:53:00;;;;;;;2.83;2.38;;;14.60;99.90;;;;;;4130379;28;20427;-69
2023/06/13 07:55:02;;;;;;;4.07;2.35;;;14.60;99.90;;;;;;4128933;28;20376;-65
2023/06/13 07:57:03;;;;;;;2.53;2.33;;;14.70;99.90;;;;;;4130307;28;20030;-65
2023/06/13 07:59:04;;;;;;;4.20;2.22;;;14.70;99.90;;;;;;4129233;28;20093;-65
2023/06/13 08:01:05;;;;;;;4.55;2.58;;;14.80;99.90;;;;;;4130276;28;20038;-65
2023/06/13 08:03:07;;;;;;;4.53;2.67;;;14.80;99.90;;;;;;4129310;28;20558;-66
2023/06/13 08:05:08;;;;;;;4.82;2.05;;;14.90;99.90;;;;;;4129415;28;20027;-64
2023/06/13 08:07:10;;;;;;;2.58;2.10;;;15.00;99.90;;;;;;4127209;28;20594;-66
2023/06/13 08:09:11;;;;;;;3.15;2.00;;;15.00;99.90;;;;;;4129160;28;20101;-66
2023/06/13 08:11:12;;;;;;;2.42;2.22;;;15.00;99.90;;;;;;4127842;28;20104;-62
2023/06/13 08:13:14;;;;;;;2.40;2.20;;;15.00;99.90;;;;;;4128916;28;20443;-64
2023/06/13 08:15:15;;;;;;;2.38;2.15;;;15.00;99.90;;;;;;4128240;28;20542;-61
2023/06/13 08:17:16;;;;;;;3.00;2.20;;;15.00;99.90;;;;;;4129036;28;20518;-63
2023/06/13 08:19:17;;;;;;;2.60;2.40;;;15.00;99.90;;;;;;4129595;28;20085;-61
2023/06/13 08:21:19;;;;;;;3.08;2.80;;;15.00;99.90;;;;;;4128772;28;20030;-61
2023/06/13 08:23:20;;;;;;;3.33;2.97;;;15.00;99.90;;;;;;4129762;28;20038;-61
2023/06/13 08:25:21;;;;;;;2.53;1.80;;;15.10;99.90;;;;;;4128734;28;20034;-62
2023/06/13 08:27:22;;;;;;;2.78;2.58;;;15.10;99.90;;;;;;4129805;28;20042;-61
2023/06/13 08:29:25;;;;;;;2.38;2.15;;;15.00;99.90;;;;;;4128234;28;20450;-61
2023/06/13 08:31:26;;;;;;;2.40;2.20;;;15.10;99.90;;;;;;4144916;28;20088;-62
2023/06/13 08:33:28;;;;;;;4.95;2.75;;;15.00;99.90;;;;;;4128365;28;20089;-62
2023/06/13 08:35:30;;;;;;;2.53;2.33;;;15.10;99.90;;;;;;4128756;28;20047;-66
2023/06/13 08:37:31;;;;;;;5.80;2.47;;;15.10;99.90;;;;;;4128706;28;20852;-65
2023/06/13 08:39:32;;;;;;;3.35;3.05;;;15.10;99.90;;;;;;4128942;28;20105;-68
2023/06/13 08:41:35;;;;;;;5.68;4.72;;;15.10;99.90;;;;;;4128768;28;20038;-66
2023/06/13 08:43:37;;;;;;;6.75;6.05;;;15.10;99.90;;;;;;4128306;28;20030;-66
2023/06/13 08:45:38;;;;;;;5.65;4.93;;;15.10;99.90;;;;;;4129138;28;20042;-71
2023/06/13 08:47:46;;;;;;;7.82;6.95;;;15.10;99.90;;;;;;4128076;28;20023;-62
2023/06/13 08:49:48;;;;;;;4.15;3.40;;;15.10;99.90;;;;;;4128809;28;20096;-62
2023/06/13 08:51:52;;;;;;;2.67;2.47;;;15.10;99.90;;;;;;4128022;28;20038;-65
2023/06/13 08:53:59;;;;;;;2.80;2.38;;;15.10;99.90;;;;;;4127054;28;20042;-63
2023/06/13 08:56:06;;;;;;;2.63;2.42;;;15.00;99.90;;;;;;4128181;28;20475;-66
2023/06/13 08:58:09;;;;;;;2.83;2.03;;;15.00;99.90;;;;;;4129198;28;20034;-66
2023/06/13 09:00:13;;;;;;;2.47;2.30;;;15.00;99.90;;;;;;4128128;28;20038;-62
2023/06/13 09:02:17;;;;;;;2.33;1.98;;;15.00;99.90;;;;;;4129280;28;20026;-64
2023/06/13 09:04:19;;;;;;;2.50;2.25;;;15.00;99.90;;;;;;4128050;28;20434;-65
2023/06/13 09:06:21;;;;;;;3.30;2.65;;;15.00;99.90;;;;;;4128520;28;20030;-62
2023/06/13 09:08:24;;;;;;;3.90;3.22;;;15.00;99.90;;;;;;4127683;28;20533;-65
2023/06/13 09:10:26;;;;;;;3.60;3.17;;;15.00;99.90;;;;;;4128637;28;20451;-66
2023/06/13 09:12:27;;;;;;;2.42;2.10;;;15.10;99.90;;;;;;4141859;28;20458;-62
2023/06/13 09:14:29;;;;;;;4.20;3.65;;;15.00;99.90;;;;;;4127828;28;20097;-63
2023/06/13 09:16:30;;;;;;;2.75;2.47;;;15.10;99.90;;;;;;4127523;28;20043;-62
2023/06/13 09:18:36;;;;;;;3.35;2.40;;;15.10;99.90;;;;;;4128430;28;20534;-62
2023/06/13 09:20:37;;;;;;;2.53;2.08;;;15.10;99.90;;;;;;4127846;28;20085;-64
2023/06/13 09:22:40;;;;;;;1.75;1.65;;;15.10;99.90;;;;;;4127248;28;20034;-63
2023/06/13 09:24:41;;;;;;;1.67;1.50;;;15.10;99.90;;;;;;4143579;28;20843;-65
2023/06/13 09:26:43;;;;;;;1.90;1.80;;;15.10;99.90;;;;;;4127266;28;20092;-64
2023/06/13 09:28:47;;;;;;;1.80;1.70;;;15.00;99.90;;;;;;4143723;28;20433;-64
2023/06/13 09:30:48;;;;;;;1.98;1.83;;;15.00;99.90;;;;;;4127716;28;20444;-66
2023/06/13 09:32:51;;;;;;;1.55;1.45;;;15.00;99.90;;;;;;4129136;28;20082;-67
2023/06/13 09:34:52;;;;;;;1.75;1.65;;;15.00;99.90;;;;;;4127323;28;20054;-65
2023/06/13 09:36:55;;;;;;;3.30;2.20;;;15.10;99.90;;;;;;4128635;28;20109;-65
2023/06/13 09:38:56;;;;;;;2.78;2.00;;;15.10;99.90;;;;;;4125840;28;20100;-62
2023/06/13 09:40:57;;;;;;;2.40;2.20;;;15.10;99.90;;;;;;4126742;28;20050;-64
2023/06/13 09:43:02;;;;;;;5.85;3.05;;;15.10;99.90;;;;;;4127452;28;20105;-68
2023/06/13 09:45:08;;;;;;;2.85;2.25;;;15.20;99.90;;;;;;4128115;28;20634;-66
2023/06/13 09:47:20;;;;;;;3.42;2.83;;;15.10;99.90;;;;;;4127326;28;20450;-66
2023/06/13 09:49:22;;;;;;;3.05;2.67;;;15.10;99.90;;;;;;4128704;28;20038;-65
2023/06/13 09:51:23;;;;;;;4.10;2.75;;;15.10;99.90;;;;;;4127689;28;20368;-64
2023/06/13 09:53:25;;;;;;;2.42;2.22;;;15.10;99.90;;;;;;4128281;28;20146;-69
2023/06/13 09:55:27;;;;;;;2.45;2.25;;;15.10;99.90;;;;;;4127918;28;20014;-63
2023/06/13 09:57:28;;;;;;;3.05;2.53;;;15.00;99.90;;;;;;4127783;28;20030;-67
2023/06/13 09:59:29;;;;;;;3.10;2.83;;;15.10;99.90;;;;;;4128222;28;20027;-69
2023/06/13 10:01:32;;;;;;;2.75;2.40;;;15.00;99.90;;;;;;4127909;28;20092;-65
2023/06/13 10:03:33;;;;;;;2.67;2.28;;;15.00;99.90;;;;;;4128398;28;20023;-69
2023/06/13 10:05:34;;;;;;;4.25;2.50;;;15.10;99.90;;;;;;4127455;28;20407;-65
2023/06/13 10:07:36;;;;;;;4.88;2.90;;;15.10;99.90;;;;;;4128324;28;20525;-65
2023/06/13 10:09:38;;;;;;;3.28;2.72;;;15.10;99.90;;;;;;4127220;28;20039;-62
2023/06/13 10:11:43;;;;;;;3.40;2.78;;;15.20;99.90;;;;;;4127923;28;20483;-63
2023/06/13 10:14:11;;;;;;;5.43;2.38;;;15.30;99.90;;;;;;4127383;28;20506;-61
2023/06/13 10:16:14;;;;;;;4.55;2.95;;;15.30;99.90;;;;;;4128044;28;20558;-62
2023/06/13 10:18:19;;;;;;;4.65;2.90;;;15.30;99.90;;;;;;4127375;28;20044;-62
2023/06/13 10:20:21;;;;;;;13.20;4.20;;;15.30;99.90;;;;;;4128285;28;20093;-67
2023/06/13 10:22:23;;;;;;;3.38;2.35;;;15.30;99.90;;;;;;4127220;28;20084;-62
2023/06/13 10:24:26;;;;;;;3.70;2.42;;;15.30;99.90;;;;;;4128576;28;20082;-63
2023/06/13 10:26:40;;;;;;;3.25;2.95;;;15.40;99.90;;;;;;4127188;28;20050;-64
2023/06/13 10:28:50;;;;;;;2.88;2.63;;;15.40;99.90;;;;;;4129267;28;20431;-64
2023/06/13 10:31:03;;;;;;;6.30;3.83;;;15.40;99.90;;;;;;4130350;28;20034;-62
2023/06/13 10:33:16;;;;;;;3.40;3.10;;;15.40;99.90;;;;;;4131863;28;20084;-65
2023/06/13 10:35:45;;;;;;;3.88;3.50;;;15.40;99.90;;;;;;4130423;28;20077;-65
2023/06/13 10:38:08;;;;;;;4.65;3.55;;;15.40;99.90;;;;;;4131064;28;20034;-67